Pender, Nebraska
Current Conditions -  °F | °C
As of 4:35 PM on Tuesday 21 Oct 2014 (Local Time) from KLCG Reporting Station
Clear Clear  
Wind Chill: 77°   Ceiling: Unl
Heat Index: 78°   Visibility: 10mi
Dew Point: 43°   Wind: 15mph
Humidity: 30%   Direction: 170°S
Pressure: 29.99"   Gusts: NA
Location:  42.11°N, 96.71°W
Report Text: KLCG 212135Z AUTO 17013KT 10SM CLR 25/06 A2999 RMK AO2 T02480060
Loading
Personal Weather Stations






























Interactive Weather Map
Tropical Storm Tracking
New forecast layout! Learn more

10-Day Weather Forecast

Advertisements
Track Severe Weather on mobile